Time;durP1;ratioP1;P1;durP2;ratioP2;P2;SDS_P1;SDS_P2;PMS_P1;PMS_P2;Temp;Humidity;BMP_temperature;BMP_pressure;BME280_temperature;BME280_humidity;BME280_pressure;Samples;Min_cycle;Max_cycle;Signal;HPM_P1;HPM_P2
2023/06/23 00:01:00;;;;;;;13.98;7.93;;;;;;;15.75;100.00;101789.56;4996957;28;20109;-49
2023/06/23 00:03:26;;;;;;;9.27;7.60;;;;;;;15.72;100.00;101786.16;5001317;28;20041;-50
2023/06/23 00:05:51;;;;;;;12.35;8.00;;;;;;;15.69;100.00;101799.81;5002356;28;20121;-49
2023/06/23 00:08:16;;;;;;;11.00;8.23;;;;;;;15.69;100.00;101797.13;4996042;28;20113;-49
2023/06/23 00:10:43;;;;;;;12.65;7.95;;;;;;;15.66;100.00;101800.06;4997733;28;20026;-49
2023/06/23 00:13:09;;;;;;;15.63;9.18;;;;;;;15.65;100.00;101805.53;5002987;28;20021;-49
2023/06/23 00:15:35;;;;;;;10.50;8.32;;;;;;;15.61;100.00;101799.59;4999145;28;20098;-49
2023/06/23 00:18:00;;;;;;;10.88;8.80;;;;;;;15.62;100.00;101806.66;5000389;28;20130;-49
2023/06/23 00:20:26;;;;;;;12.10;8.73;;;;;;;15.61;100.00;101809.47;4997419;28;20083;-51
2023/06/23 00:22:52;;;;;;;11.38;8.82;;;;;;;15.58;100.00;101813.22;4992586;28;20061;-49
2023/06/23 00:25:18;;;;;;;13.93;9.05;;;;;;;15.58;100.00;101820.41;5000924;28;20038;-52
2023/06/23 00:27:45;;;;;;;11.77;9.45;;;;;;;15.58;100.00;101815.91;5002603;28;20026;-49
2023/06/23 00:30:11;;;;;;;14.23;9.70;;;;;;;15.60;100.00;101821.97;4997994;28;20037;-49
2023/06/23 00:32:37;;;;;;;11.30;10.10;;;;;;;15.58;100.00;101815.06;5003445;28;20046;-50
2023/06/23 00:35:03;;;;;;;12.57;9.80;;;;;;;15.52;100.00;101829.78;5000368;28;20110;-49
2023/06/23 00:37:30;;;;;;;13.82;10.40;;;;;;;15.47;100.00;101830.19;5000928;28;20030;-48
2023/06/23 00:39:55;;;;;;;13.18;9.88;;;;;;;15.47;100.00;101834.66;5004625;28;20392;-49
2023/06/23 00:42:21;;;;;;;14.63;9.77;;;;;;;15.43;100.00;101830.56;4997347;28;20030;-49
2023/06/23 00:44:46;;;;;;;14.93;10.65;;;;;;;15.40;100.00;101845.03;4999449;28;20042;-51
2023/06/23 00:47:14;;;;;;;11.68;10.00;;;;;;;15.39;100.00;101834.44;5002665;28;20068;-48
2023/06/23 00:49:40;;;;;;;12.65;10.77;;;;;;;15.39;100.00;101842.47;4996961;28;20113;-48
2023/06/23 00:52:07;;;;;;;13.68;10.68;;;;;;;15.37;100.00;101847.97;4994953;28;20022;-49
2023/06/23 00:54:35;;;;;;;14.48;11.88;;;;;;;15.38;100.00;101855.00;5001046;28;20064;-49
2023/06/23 00:57:01;;;;;;;13.88;11.60;;;;;;;15.35;100.00;101853.47;4995363;28;20034;-48
2023/06/23 00:59:30;;;;;;;14.93;11.73;;;;;;;15.33;100.00;101863.41;4994682;28;20479;-50
2023/06/23 01:01:58;;;;;;;14.93;12.77;;;;;;;15.29;100.00;101870.00;5000366;28;20038;-49
2023/06/23 01:04:32;;;;;;;21.42;12.32;;;;;;;15.30;100.00;101871.69;4997890;28;20056;-48
2023/06/23 01:07:21;;;;;;;17.05;13.25;;;;;;;15.31;100.00;101873.41;5001019;28;20113;-48
2023/06/23 01:10:02;;;;;;;18.42;13.88;;;;;;;15.26;100.00;101878.28;5003514;28;20026;-49
2023/06/23 01:12:36;;;;;;;21.10;14.20;;;;;;;15.25;100.00;101895.28;4996706;28;20165;-49
2023/06/23 01:15:16;;;;;;;15.98;14.27;;;;;;;15.27;100.00;101889.81;4997839;28;20405;-50
2023/06/23 01:17:49;;;;;;;20.60;14.75;;;;;;;15.27;100.00;101885.34;4995611;28;20037;-49
2023/06/23 01:20:24;;;;;;;17.92;14.98;;;;;;;15.23;100.00;101886.53;4998624;28;20385;-48
2023/06/23 01:23:14;;;;;;;19.92;15.70;;;;;;;15.25;100.00;101884.59;4998318;28;20033;-49
2023/06/23 01:26:06;;;;;;;17.67;15.85;;;;;;;15.25;100.00;101878.38;5001605;28;20114;-50
2023/06/23 01:28:50;;;;;;;17.55;15.20;;;;;;;15.24;100.00;101879.34;4997625;28;20045;-50
2023/06/23 01:31:22;;;;;;;20.92;15.73;;;;;;;15.15;100.00;101873.78;5003448;28;20025;-50
2023/06/23 01:33:57;;;;;;;18.70;16.05;;;;;;;15.20;100.00;101880.59;4999181;28;20047;-49
2023/06/23 01:36:40;;;;;;;18.33;16.42;;;;;;;15.21;100.00;101895.69;5000788;28;20037;-49
2023/06/23 01:39:11;;;;;;;20.80;17.00;;;;;;;15.16;100.00;101904.06;4999329;28;20029;-49
2023/06/23 01:41:59;;;;;;;20.08;16.33;;;;;;;15.20;100.00;101900.16;5002708;28;20032;-49
2023/06/23 01:44:29;;;;;;;22.45;17.83;;;;;;;15.13;100.00;101904.31;4999732;28;20493;-48
2023/06/23 01:46:57;;;;;;;17.92;15.82;;;;;;;15.09;100.00;101903.69;4992443;28;20030;-50
2023/06/23 01:49:30;;;;;;;21.58;17.35;;;;;;;15.09;100.00;101902.88;4999441;28;20039;-49
2023/06/23 01:51:57;;;;;;;21.08;17.48;;;;;;;15.06;100.00;101901.25;4998124;28;20030;-48
2023/06/23 01:54:24;;;;;;;22.63;18.98;;;;;;;15.08;100.00;101904.66;5002889;28;20037;-49
2023/06/23 01:56:51;;;;;;;25.92;19.15;;;;;;;15.05;100.00;101899.53;4992117;28;20034;-51
2023/06/23 01:59:18;;;;;;;22.25;19.50;;;;;;;15.04;100.00;101910.38;4996685;28;20034;-49
2023/06/23 02:01:46;;;;;;;22.17;18.85;;;;;;;15.01;100.00;101913.31;4995888;28;20026;-49
2023/06/23 02:04:12;;;;;;;24.63;19.90;;;;;;;15.05;100.00;101922.78;5002407;28;20402;-49
2023/06/23 02:06:40;;;;;;;23.75;18.98;;;;;;;14.97;100.00;101916.22;5000109;28;20116;-49
2023/06/23 02:09:09;;;;;;;24.60;17.75;;;;;;;15.02;100.00;101926.56;4998601;28;20054;-48
2023/06/23 02:11:36;;;;;;;22.25;19.38;;;;;;;14.95;100.00;101931.56;4995331;28;20034;-49
2023/06/23 02:14:01;;;;;;;26.58;18.73;;;;;;;14.98;100.00;101927.78;5003047;28;20030;-49
2023/06/23 02:16:29;;;;;;;23.20;17.98;;;;;;;14.96;100.00;101929.72;4999980;28;20033;-49
2023/06/23 02:18:56;;;;;;;22.70;18.65;;;;;;;14.96;100.00;101938.59;4998925;28;20376;-49
2023/06/23 02:21:23;;;;;;;24.73;18.52;;;;;;;14.95;100.00;101944.06;4990586;28;20062;-49
2023/06/23 02:23:49;;;;;;;25.30;20.35;;;;;;;14.93;100.00;101944.16;4999854;28;20053;-49
2023/06/23 02:26:15;;;;;;;21.40;19.10;;;;;;;14.94;100.00;101953.06;4996412;28;20034;-49
2023/06/23 02:28:42;;;;;;;21.55;18.73;;;;;;;14.90;100.00;101949.75;4997429;28;20018;-51
2023/06/23 02:31:09;;;;;;;22.48;19.10;;;;;;;14.88;100.00;101957.06;5001391;28;20145;-51
2023/06/23 02:33:34;;;;;;;25.70;19.30;;;;;;;14.86;100.00;101959.00;5001096;28;20043;-49
2023/06/23 02:36:02;;;;;;;23.55;19.15;;;;;;;14.81;100.00;101961.19;5000287;28;20030;-49
2023/06/23 02:38:30;;;;;;;24.85;20.67;;;;;;;14.82;100.00;101965.53;4996966;28;20476;-50
2023/06/23 02:40:57;;;;;;;25.83;21.00;;;;;;;14.83;100.00;101980.63;4999569;28;20027;-48
2023/06/23 02:43:35;;;;;;;23.23;20.55;;;;;;;14.82;100.00;101984.25;4991858;28;20034;-48
2023/06/23 02:46:03;;;;;;;23.95;20.33;;;;;;;14.76;100.00;101985.59;5002784;28;20045;-48
2023/06/23 02:48:38;;;;;;;23.67;21.17;;;;;;;14.77;100.00;101991.78;5003667;28;20042;-48
2023/06/23 02:51:05;;;;;;;23.92;21.02;;;;;;;14.73;100.00;101984.97;4983254;28;20058;-48
2023/06/23 02:53:37;;;;;;;26.20;22.13;;;;;;;14.71;100.00;101981.56;5001671;28;20034;-49
2023/06/23 02:56:13;;;;;;;23.35;20.65;;;;;;;14.68;100.00;101982.66;4999378;28;20037;-50
2023/06/23 02:58:39;;;;;;;22.95;20.08;;;;;;;14.71;100.00;101995.78;5000455;28;20083;-48
2023/06/23 03:01:06;;;;;;;28.08;22.77;;;;;;;14.70;100.00;101998.59;5001291;28;20105;-49
2023/06/23 03:03:34;;;;;;;27.70;22.88;;;;;;;14.68;100.00;101998.69;5002609;28;20026;-48
2023/06/23 03:05:59;;;;;;;27.55;21.40;;;;;;;14.71;100.00;102000.31;4994676;28;20487;-50
2023/06/23 03:08:25;;;;;;;26.73;23.77;;;;;;;14.66;100.00;101999.78;5003157;28;20052;-49
2023/06/23 03:10:50;;;;;;;25.00;22.27;;;;;;;14.65;100.00;101995.41;4999276;28;20117;-49
2023/06/23 03:13:16;;;;;;;28.13;22.92;;;;;;;14.63;100.00;101998.19;5003618;28;20026;-49
2023/06/23 03:15:42;;;;;;;27.77;22.63;;;;;;;14.65;100.00;101992.72;5000491;28;20022;-52
2023/06/23 03:18:17;;;;;;;27.77;24.05;;;;;;;14.64;100.00;101999.91;5001458;28;20026;-49
2023/06/23 03:20:48;;;;;;;25.85;22.80;;;;;;;14.63;100.00;102000.88;5000605;28;20023;-48
2023/06/23 03:23:15;;;;;;;31.27;24.30;;;;;;;14.64;100.00;102001.72;4995813;28;20533;-51
2023/06/23 03:25:46;;;;;;;30.60;24.02;;;;;;;14.57;100.00;102002.16;4999489;28;20105;-49
2023/06/23 03:28:16;;;;;;;28.20;24.02;;;;;;;14.59;100.00;102005.59;5000957;28;20027;-49
2023/06/23 03:30:50;;;;;;;28.08;23.85;;;;;;;14.56;100.00;102004.94;4998527;28;20018;-49
2023/06/23 03:33:27;;;;;;;28.17;25.02;;;;;;;14.55;100.00;102012.09;4994977;28;20053;-50
2023/06/23 03:35:56;;;;;;;29.08;24.40;;;;;;;14.55;100.00;102012.09;5002714;28;20037;-49
2023/06/23 03:38:24;;;;;;;29.52;24.98;;;;;;;14.54;100.00;102010.41;5000330;28;20034;-48
2023/06/23 03:41:01;;;;;;;28.15;25.17;;;;;;;14.49;100.00;102006.34;4999373;28;20430;-49
2023/06/23 03:43:41;;;;;;;28.42;25.02;;;;;;;14.54;100.00;102006.88;5004432;28;20022;-49
2023/06/23 03:46:23;;;;;;;27.05;23.20;;;;;;;14.53;100.00;102003.34;4998314;28;20494;-49
2023/06/23 03:48:52;;;;;;;25.40;22.70;;;;;;;14.51;100.00;102005.28;4999333;28;20410;-52
2023/06/23 03:51:20;;;;;;;39.05;26.27;;;;;;;14.50;100.00;102008.91;4999274;28;20058;-52
2023/06/23 03:53:48;;;;;;;31.15;24.80;;;;;;;14.47;100.00;102014.50;5002327;28;20037;-49
2023/06/23 03:56:15;;;;;;;31.30;25.38;;;;;;;14.48;100.00;102005.50;5002111;28;20371;-52
2023/06/23 03:58:43;;;;;;;27.35;24.17;;;;;;;14.49;100.00;102012.56;5004369;28;20033;-50
2023/06/23 04:01:09;;;;;;;32.80;25.65;;;;;;;14.50;100.00;102011.59;5003964;28;20025;-49
2023/06/23 04:03:37;;;;;;;28.92;25.33;;;;;;;14.50;100.00;102029.44;5002348;28;20033;-49
2023/06/23 04:06:06;;;;;;;34.30;25.05;;;;;;;14.52;100.00;102022.16;4997986;28;20022;-50
2023/06/23 04:08:33;;;;;;;27.67;24.25;;;;;;;14.55;100.00;102030.81;5000599;28;20030;-51
2023/06/23 04:11:00;;;;;;;29.85;23.92;;;;;;;14.54;100.00;102029.13;5001239;28;20026;-49
2023/06/23 04:13:31;;;;;;;27.73;24.10;;;;;;;14.55;100.00;102035.31;5001875;28;20034;-49
2023/06/23 04:15:58;;;;;;;27.73;23.60;;;;;;;14.59;100.00;102037.69;5003079;28;20022;-52
2023/06/23 04:18:26;;;;;;;26.80;22.25;;;;;;;14.49;100.00;102039.31;5001719;28;20376;-52
2023/06/23 04:20:55;;;;;;;26.42;23.60;;;;;;;14.56;100.00;102040.53;4999275;28;20499;-48
2023/06/23 04:23:20;;;;;;;27.00;24.13;;;;;;;14.59;100.00;102047.53;5001021;28;20100;-51
2023/06/23 04:25:49;;;;;;;28.67;24.35;;;;;;;14.64;100.00;102047.16;5005013;28;20058;-48
2023/06/23 04:28:22;;;;;;;28.83;23.80;;;;;;;14.64;100.00;102055.19;5000876;28;20026;-49
2023/06/23 04:30:48;;;;;;;27.95;24.35;;;;;;;14.67;100.00;102050.50;4999290;28;20117;-48
2023/06/23 04:33:14;;;;;;;25.92;23.10;;;;;;;14.71;100.00;102051.94;5002970;28;20046;-48
2023/06/23 04:35:39;;;;;;;26.67;23.88;;;;;;;14.73;100.00;102052.69;5001152;28;20539;-48
2023/06/23 04:38:14;;;;;;;30.20;23.52;;;;;;;14.75;100.00;102052.56;4997491;28;20049;-49
2023/06/23 04:41:01;;;;;;;27.75;24.80;;;;;;;14.82;100.00;102064.50;5000513;28;20033;-49
2023/06/23 04:43:33;;;;;;;28.25;23.42;;;;;;;14.85;100.00;102069.63;5001746;28;20084;-49
2023/06/23 04:46:11;;;;;;;28.70;24.67;;;;;;;14.88;100.00;102068.56;5000022;28;20037;-49
2023/06/23 04:48:42;;;;;;;32.47;25.95;;;;;;;14.95;100.00;102072.47;4998356;28;20040;-50
2023/06/23 04:51:08;;;;;;;30.70;26.42;;;;;;;15.03;100.00;102072.75;5002363;28;20476;-49
2023/06/23 04:53:43;;;;;;;31.63;25.55;;;;;;;15.12;100.00;102065.81;5002698;28;20026;-50
2023/06/23 04:56:15;;;;;;;31.27;27.60;;;;;;;15.17;100.00;102063.66;4998986;28;20031;-50
2023/06/23 04:58:43;;;;;;;32.00;27.60;;;;;;;15.25;100.00;102069.25;5000662;28;20026;-49
2023/06/23 05:01:11;;;;;;;30.35;27.08;;;;;;;15.34;100.00;102081.94;5002226;28;20033;-51
2023/06/23 05:03:38;;;;;;;33.53;28.10;;;;;;;15.43;100.00;102087.56;5000822;28;20073;-50
2023/06/23 05:06:06;;;;;;;34.40;27.95;;;;;;;15.51;100.00;102088.66;4995494;28;20053;-50
2023/06/23 05:08:33;;;;;;;35.95;29.27;;;;;;;15.61;100.00;102094.16;4997246;28;20034;-50
2023/06/23 05:11:05;;;;;;;32.70;29.02;;;;;;;15.69;100.00;102096.25;4998340;28;20053;-49
2023/06/23 05:13:33;;;;;;;32.15;27.92;;;;;;;15.81;100.00;102102.50;4998707;28;20038;-49
2023/06/23 05:16:02;;;;;;;32.08;28.48;;;;;;;15.84;100.00;102099.59;4996469;28;20376;-50
2023/06/23 05:18:29;;;;;;;32.55;28.13;;;;;;;15.96;100.00;102103.13;4994415;28;20030;-49
2023/06/23 05:20:59;;;;;;;33.75;28.52;;;;;;;16.07;100.00;102105.75;4999044;28;20084;-49
2023/06/23 05:23:26;;;;;;;33.85;29.05;;;;;;;16.09;100.00;102107.38;4997633;28;20369;-50
2023/06/23 05:25:56;;;;;;;39.47;29.52;;;;;;;16.18;100.00;102103.09;4999466;28;20041;-49
2023/06/23 05:28:24;;;;;;;38.83;29.40;;;;;;;16.25;100.00;102108.81;4997494;28;20038;-49
2023/06/23 05:30:52;;;;;;;37.03;30.50;;;;;;;16.38;100.00;102114.03;4998076;28;20026;-49
2023/06/23 05:33:18;;;;;;;37.38;29.90;;;;;;;16.48;100.00;102117.66;4999201;28;20488;-51
2023/06/23 05:35:45;;;;;;;41.08;30.17;;;;;;;16.57;100.00;102118.75;4998614;28;20038;-49
2023/06/23 05:38:12;;;;;;;36.92;31.33;;;;;;;16.75;100.00;102122.63;4996247;28;20037;-48
2023/06/23 05:40:38;;;;;;;40.80;30.98;;;;;;;16.91;100.00;102121.38;5001299;28;20038;-48
2023/06/23 05:43:04;;;;;;;40.67;31.55;;;;;;;16.99;100.00;102126.94;5001706;28;20125;-49
2023/06/23 05:45:29;;;;;;;42.45;32.85;;;;;;;17.13;100.00;102128.47;5002211;28;20130;-49
2023/06/23 05:48:01;;;;;;;36.45;30.45;;;;;;;17.28;100.00;102131.69;4995872;28;20168;-50
2023/06/23 05:50:32;;;;;;;36.15;30.05;;;;;;;17.43;100.00;102134.91;4999988;28;20030;-50
2023/06/23 05:53:02;;;;;;;36.30;31.63;;;;;;;17.59;100.00;102134.47;4999307;28;20125;-48
2023/06/23 05:55:29;;;;;;;39.90;31.35;;;;;;;17.72;100.00;102140.47;4992359;28;20034;-48
2023/06/23 05:57:59;;;;;;;36.00;30.55;;;;;;;17.85;100.00;102135.75;4995709;28;20057;-46
2023/06/23 06:00:30;;;;;;;36.55;30.45;;;;;;;18.00;100.00;102138.94;4998137;28;20045;-47
2023/06/23 06:02:58;;;;;;;42.92;31.42;;;;;;;18.16;100.00;102143.81;4994236;28;20041;-47
2023/06/23 06:05:27;;;;;;;38.63;28.73;;;;;;;18.29;100.00;102141.72;4986174;28;20231;-48
2023/06/23 06:07:56;;;;;;;35.67;29.13;;;;;;;18.37;100.00;102140.19;5001422;28;20109;-48
2023/06/23 06:10:23;;;;;;;36.30;29.23;;;;;;;18.52;100.00;102154.09;4991538;28;20049;-47
2023/06/23 06:12:50;;;;;;;35.55;30.30;;;;;;;18.64;100.00;102151.16;4996460;28;20041;-47
2023/06/23 06:15:17;;;;;;;36.42;29.92;;;;;;;18.84;100.00;102159.31;4997131;28;20030;-47
2023/06/23 06:17:43;;;;;;;33.15;29.13;;;;;;;19.02;100.00;102160.31;4988524;28;20165;-47
2023/06/23 06:20:12;;;;;;;37.60;29.50;;;;;;;19.17;100.00;102149.13;4991937;28;20033;-47
2023/06/23 06:22:41;;;;;;;33.17;28.15;;;;;;;19.23;100.00;102157.50;5004195;28;20124;-47
2023/06/23 06:25:11;;;;;;;35.83;28.13;;;;;;;19.36;100.00;102153.66;5005689;28;20422;-46
2023/06/23 06:27:38;;;;;;;32.67;28.65;;;;;;;19.54;100.00;102153.78;5007050;28;20053;-48
2023/06/23 06:30:05;;;;;;;31.00;27.67;;;;;;;19.77;100.00;102154.31;4995155;28;20030;-48
2023/06/23 06:32:34;;;;;;;35.30;26.88;;;;;;;19.88;100.00;102156.81;5014527;28;20054;-48
2023/06/23 06:35:05;;;;;;;31.77;27.80;;;;;;;20.00;100.00;102164.75;5002410;28;20379;-47
2023/06/23 06:37:37;;;;;;;32.40;26.58;;;;;;;20.05;100.00;102166.00;5002879;28;20030;-48
2023/06/23 06:40:07;;;;;;;30.17;26.02;;;;;;;20.06;100.00;102175.78;5002417;28;20100;-48
2023/06/23 06:42:33;;;;;;;29.00;25.27;;;;;;;20.05;100.00;102174.09;4999145;28;20570;-47
2023/06/23 06:44:59;;;;;;;33.17;25.88;;;;;;;20.01;100.00;102188.03;5001831;28;20121;-48
2023/06/23 06:47:27;;;;;;;30.25;25.55;;;;;;;19.92;100.00;102178.97;4999770;28;20036;-50
2023/06/23 06:49:55;;;;;;;30.55;25.58;;;;;;;19.97;100.00;102184.78;5002596;28;20080;-48
2023/06/23 06:52:22;;;;;;;34.00;27.13;;;;;;;19.91;100.00;102199.69;4999831;28;20064;-48
2023/06/23 06:54:47;;;;;;;32.95;26.08;;;;;;;19.86;100.00;102199.25;5006614;28;20408;-47
2023/06/23 06:57:13;;;;;;;32.20;27.00;;;;;;;19.93;100.00;102194.13;4998527;28;20026;-46
2023/06/23 06:59:38;;;;;;;38.72;27.58;;;;;;;19.93;100.00;102192.31;5003524;28;20042;-47
2023/06/23 07:02:05;;;;;;;34.13;24.83;;;;;;;20.26;100.00;102197.31;5001192;28;20030;-47
2023/06/23 07:04:31;;;;;;;38.83;27.73;;;;;;;20.29;100.00;102197.00;5004882;28;20112;-46
2023/06/23 07:06:56;;;;;;;31.73;26.77;;;;;;;20.27;100.00;102194.47;5001720;28;20387;-47
2023/06/23 07:09:22;;;;;;;30.00;26.23;;;;;;;20.42;100.00;102202.06;5000734;28;20422;-48
2023/06/23 07:11:48;;;;;;;30.55;25.88;;;;;;;20.71;100.00;102210.03;4997572;28;20028;-47
2023/06/23 07:14:14;;;;;;;31.45;25.20;;;;;;;20.96;99.97;102213.00;5002159;28;20054;-47
2023/06/23 07:16:39;;;;;;;28.98;25.52;;;;;;;21.22;97.26;102219.34;4995121;28;20030;-47
2023/06/23 07:19:05;;;;;;;25.98;22.65;;;;;;;21.39;95.35;102212.22;5004307;28;20049;-50
2023/06/23 07:21:30;;;;;;;25.98;23.33;;;;;;;21.65;95.73;102216.88;5001454;28;20053;-48
2023/06/23 07:23:55;;;;;;;27.15;22.13;;;;;;;21.97;93.90;102216.25;5002369;28;20041;-48
2023/06/23 07:26:21;;;;;;;35.30;22.67;;;;;;;22.21;89.87;102220.09;4996004;28;20029;-47
2023/06/23 07:28:46;;;;;;;30.92;22.38;;;;;;;22.46;90.14;102222.97;5000920;28;20129;-46
2023/06/23 07:31:11;;;;;;;24.98;21.70;;;;;;;22.68;89.63;102235.94;5006932;28;20022;-49
2023/06/23 07:33:39;;;;;;;20.90;18.70;;;;;;;22.76;86.30;102229.69;4999932;28;20069;-47
2023/06/23 07:36:05;;;;;;;20.30;18.10;;;;;;;22.94;85.75;102231.44;4993772;28;20292;-47
2023/06/23 07:38:30;;;;;;;20.08;17.98;;;;;;;23.08;81.70;102231.66;4999280;28;20286;-47
2023/06/23 07:40:55;;;;;;;20.52;17.80;;;;;;;23.44;85.02;102231.34;5002000;28;20057;-51
2023/06/23 07:43:21;;;;;;;19.85;16.20;;;;;;;23.54;80.35;102230.34;5003272;28;20072;-47
2023/06/23 07:45:46;;;;;;;18.40;16.17;;;;;;;23.73;81.13;102231.84;5002885;28;20048;-47
2023/06/23 07:48:12;;;;;;;22.13;18.83;;;;;;;23.97;79.64;102231.84;4998784;28;20057;-47
2023/06/23 07:50:37;;;;;;;21.15;17.13;;;;;;;24.09;78.94;102229.63;4998715;28;20034;-46
2023/06/23 07:53:03;;;;;;;18.23;15.23;;;;;;;24.26;77.38;102229.56;5001521;28;20072;-47
2023/06/23 07:55:28;;;;;;;18.33;15.63;;;;;;;24.29;76.38;102230.06;5002153;28;20463;-47
2023/06/23 07:57:53;;;;;;;16.33;14.57;;;;;;;24.45;75.40;102225.59;5000652;28;20117;-50
2023/06/23 08:00:19;;;;;;;17.17;14.30;;;;;;;24.70;75.26;102227.22;5000059;28;20065;-47
2023/06/23 08:02:44;;;;;;;17.98;14.68;;;;;;;24.86;75.12;102233.59;4999405;28;20026;-48
2023/06/23 08:05:10;;;;;;;16.63;13.32;;;;;;;25.14;74.84;102242.06;5000001;28;20097;-48
2023/06/23 08:07:35;;;;;;;17.77;13.30;;;;;;;25.38;71.55;102237.50;5002398;28;20018;-49
2023/06/23 08:10:01;;;;;;;15.13;13.50;;;;;;;25.23;70.62;102227.41;4998731;28;20046;-48
2023/06/23 08:12:26;;;;;;;15.18;12.65;;;;;;;25.43;70.98;102238.69;4998311;28;20030;-48
2023/06/23 08:14:51;;;;;;;17.17;12.97;;;;;;;25.51;68.48;102234.19;5001291;28;20040;-48
2023/06/23 08:17:17;;;;;;;14.30;12.23;;;;;;;25.74;67.07;102234.16;4998771;28;20285;-49
2023/06/23 08:19:43;;;;;;;14.63;11.95;;;;;;;25.87;67.61;102230.81;4998439;28;20201;-49
2023/06/23 08:22:09;;;;;;;13.93;11.75;;;;;;;26.09;66.97;102242.69;5000085;28;20479;-49
2023/06/23 08:24:34;;;;;;;12.38;11.07;;;;;;;26.08;67.33;102241.84;5000173;28;20030;-52
2023/06/23 08:27:00;;;;;;;14.65;11.10;;;;;;;26.25;64.95;102247.09;5001007;28;20079;-49
2023/06/23 08:29:25;;;;;;;15.47;11.00;;;;;;;26.43;66.83;102238.53;4997210;28;20041;-48
2023/06/23 08:31:50;;;;;;;13.15;10.57;;;;;;;26.50;64.75;102240.31;4999062;28;20281;-49
2023/06/23 08:34:18;;;;;;;14.53;10.33;;;;;;;26.67;63.67;102241.00;5001567;28;20038;-50
2023/06/23 08:36:43;;;;;;;12.55;10.18;;;;;;;26.74;60.80;102243.78;4995965;28;20274;-50
2023/06/23 08:39:09;;;;;;;10.63;9.40;;;;;;;26.92;58.01;102240.66;4999872;28;20487;-49
2023/06/23 08:41:35;;;;;;;11.40;9.55;;;;;;;27.09;60.26;102252.16;4997535;28;20026;-49
2023/06/23 08:44:04;;;;;;;11.73;9.98;;;;;;;27.15;57.80;102251.38;4999739;28;20081;-49
2023/06/23 08:46:31;;;;;;;10.25;9.20;;;;;;;27.43;59.07;102258.81;4998596;28;20113;-48
2023/06/23 08:49:02;;;;;;;12.00;10.23;;;;;;;27.57;60.22;102252.44;5001254;28;20036;-49
2023/06/23 08:51:27;;;;;;;15.45;9.70;;;;;;;27.43;58.69;102262.41;4995855;28;20040;-48
2023/06/23 08:53:53;;;;;;;10.55;9.02;;;;;;;27.58;56.33;102262.34;4998283;28;20109;-49
2023/06/23 08:56:18;;;;;;;12.65;8.25;;;;;;;27.72;55.75;102259.72;4982819;28;20031;-48
2023/06/23 08:58:44;;;;;;;13.82;8.38;;;;;;;27.69;55.03;102263.66;5001188;28;20322;-50
2023/06/23 09:01:09;;;;;;;9.48;8.13;;;;;;;27.82;56.16;102266.50;5000263;28;20616;-49
2023/06/23 09:03:35;;;;;;;10.18;8.25;;;;;;;27.81;55.81;102255.78;4999222;28;20403;-49
2023/06/23 09:06:03;;;;;;;10.27;7.72;;;;;;;28.34;56.53;102268.97;5007974;28;20034;-49
2023/06/23 09:08:28;;;;;;;9.68;7.63;;;;;;;28.30;56.60;102271.28;5003025;28;20026;-49
2023/06/23 09:10:53;;;;;;;7.65;6.57;;;;;;;28.52;54.55;102271.19;5001078;28;20029;-49
2023/06/23 09:13:27;;;;;;;9.00;6.00;;;;;;;28.75;54.33;102266.28;4997287;28;20030;-48
2023/06/23 09:15:54;;;;;;;7.90;6.00;;;;;;;28.82;52.49;102271.75;4999656;28;20383;-49
2023/06/23 09:18:19;;;;;;;11.05;6.47;;;;;;;28.58;50.83;102276.72;4995731;28;20575;-49
2023/06/23 09:20:47;;;;;;;7.78;6.28;;;;;;;28.73;52.05;102275.75;4995701;28;20121;-49
2023/06/23 09:23:21;;;;;;;8.65;5.85;;;;;;;28.88;50.57;102276.41;4999733;28;20022;-49
2023/06/23 09:25:49;;;;;;;7.03;6.15;;;;;;;28.90;52.63;102276.22;4997293;28;20030;-50
2023/06/23 09:28:22;;;;;;;7.33;6.30;;;;;;;29.21;51.62;102274.84;5000606;28;20034;-52
2023/06/23 09:30:47;;;;;;;8.68;6.50;;;;;;;29.20;51.80;102282.22;4992572;28;20030;-50
2023/06/23 09:33:13;;;;;;;8.20;7.38;;;;;;;29.39;49.53;102290.66;5000756;28;20084;-50
2023/06/23 09:35:46;;;;;;;8.45;7.35;;;;;;;29.40;53.27;102281.41;4993956;28;20034;-51
2023/06/23 09:38:12;;;;;;;11.55;6.68;;;;;;;29.09;51.33;102294.56;4975269;28;20034;-49
2023/06/23 09:40:37;;;;;;;6.65;5.85;;;;;;;28.97;50.14;102296.22;4997407;28;20034;-50
2023/06/23 09:43:03;;;;;;;9.90;6.45;;;;;;;29.17;48.13;102307.25;4999490;28;20069;-49
2023/06/23 09:45:28;;;;;;;10.07;6.40;;;;;;;29.33;47.10;102293.19;5000991;28;20149;-49
2023/06/23 09:47:53;;;;;;;9.23;5.70;;;;;;;29.62;47.63;102302.06;5003105;28;20289;-49
2023/06/23 09:50:22;;;;;;;7.35;5.72;;;;;;;29.49;47.05;102304.78;4999902;28;20482;-52
2023/06/23 09:52:59;;;;;;;7.50;6.40;;;;;;;29.74;47.88;102294.06;4995694;28;20496;-51
2023/06/23 09:55:24;;;;;;;7.20;5.70;;;;;;;29.74;48.11;102291.31;4998772;28;20026;-51
2023/06/23 09:57:50;;;;;;;18.03;6.50;;;;;;;29.50;46.68;102298.28;4997080;28;20029;-50
2023/06/23 10:00:15;;;;;;;9.15;6.35;;;;;;;29.57;47.65;102293.63;4998449;28;20786;-50
2023/06/23 10:02:41;;;;;;;8.10;5.60;;;;;;;29.78;47.29;102291.75;4997734;28;20065;-49
2023/06/23 10:05:06;;;;;;;8.10;5.75;;;;;;;29.74;45.41;102282.28;4997350;28;20101;-50
2023/06/23 10:07:33;;;;;;;7.70;5.88;;;;;;;30.04;43.98;102291.78;4979769;28;20118;-53
2023/06/23 10:10:07;;;;;;;7.63;5.85;;;;;;;30.17;46.11;102285.41;4992779;28;20471;-50
2023/06/23 10:12:33;;;;;;;5.95;5.20;;;;;;;30.20;42.76;102286.91;4988627;28;20031;-50
2023/06/23 10:14:59;;;;;;;8.07;5.35;;;;;;;29.97;44.45;102285.44;4996000;28;20399;-50
2023/06/23 10:17:25;;;;;;;5.68;4.95;;;;;;;30.12;46.11;102285.22;5000485;28;20479;-50
2023/06/23 10:19:52;;;;;;;12.18;5.82;;;;;;;30.06;45.11;102289.66;4997315;28;20034;-50
2023/06/23 10:22:19;;;;;;;11.18;5.28;;;;;;;30.25;46.17;102289.84;4998508;28;20037;-50
2023/06/23 10:24:47;;;;;;;8.93;5.70;;;;;;;30.38;43.52;102289.84;4997264;28;20046;-52
2023/06/23 10:27:25;;;;;;;8.88;5.38;;;;;;;30.39;44.74;102277.81;4981326;28;20046;-51
2023/06/23 10:29:54;;;;;;;7.35;4.65;;;;;;;30.42;47.05;102287.50;4997729;28;20038;-50
2023/06/23 10:32:27;;;;;;;6.85;5.07;;;;;;;30.30;43.79;102284.53;4991834;28;20038;-49
2023/06/23 10:34:56;;;;;;;9.52;4.93;;;;;;;30.54;43.08;102287.66;4995950;28;20031;-52
2023/06/23 10:37:23;;;;;;;6.50;5.07;;;;;;;30.77;43.12;102292.63;4987202;28;20060;-50
2023/06/23 10:39:56;;;;;;;6.57;5.13;;;;;;;31.01;42.76;102290.22;5000205;28;20081;-52
2023/06/23 10:42:23;;;;;;;6.65;5.85;;;;;;;30.92;41.32;102292.34;4995134;28;20042;-50
2023/06/23 10:44:49;;;;;;;6.72;4.70;;;;;;;30.94;43.32;102298.47;4999158;28;20018;-50
2023/06/23 10:47:15;;;;;;;6.35;5.10;;;;;;;30.77;43.55;102301.69;4984828;28;20042;-52
2023/06/23 10:49:41;;;;;;;9.38;5.32;;;;;;;30.83;44.46;102299.16;5000476;28;20096;-50
2023/06/23 10:52:07;;;;;;;6.15;4.38;;;;;;;30.94;44.01;102309.44;4993878;28;20042;-52
2023/06/23 10:54:32;;;;;;;6.15;4.20;;;;;;;31.21;42.67;102296.47;4997735;28;20395;-53
2023/06/23 10:56:58;;;;;;;6.45;4.15;;;;;;;31.30;41.15;102297.03;4995199;28;20077;-51
2023/06/23 10:59:29;;;;;;;6.43;5.05;;;;;;;31.28;42.03;102301.91;4987231;28;20038;-50
2023/06/23 11:02:04;;;;;;;7.38;4.65;;;;;;;31.39;42.09;102303.09;4995418;28;20627;-53
2023/06/23 11:04:35;;;;;;;8.15;4.97;;;;;;;31.63;41.85;102307.81;5002476;28;20033;-51
2023/06/23 11:07:05;;;;;;;7.50;4.15;;;;;;;31.78;41.37;102307.47;4994021;28;20057;-53
2023/06/23 11:09:47;;;;;;;5.65;4.05;;;;;;;31.50;42.17;102308.69;5000998;28;20049;-50
2023/06/23 11:12:27;;;;;;;7.57;4.80;;;;;;;31.73;41.65;102302.66;5000948;28;20049;-50